Tiempo atmosférico en la estación meteorológica de Villayón, Oneta, Asturias (410 m.)



Fecha
DESCASC
Temp. máxima en grados centígrados (hora)
DESCASC
Temp. mínima en grados centígrados (hora)
DESCASC
Temp. media en grados centígrados
DESCASC
Racha de viento máxima en m/sg (hora)
DESCASC
Velocidad máxima media en intervalos de 10 minutos(hora)
DESCASC
Precipitaciones diarias en mm
DESCASC
Precipitaciones de 00:00 a 06:00 en mm
DESCASC
Precipitaciones de 06:00 a 12:00 en mm
DESCASC
Precipitaciones de 12:00 a 18:00 en mm
DESCASC
Precipitaciones de 18:00 a 24:00 en mm
DESCASC
29-10-2020 16.5 (13:10) 9.4 (08:50) 12.9 7.22 (04:40) 3.89 (04:50) 0 0 0 0 0
28-10-2020 15.8 (16:40) 10.7 (07:20) 13.3 10.28 (13:30) 4.72 (13:10) 0 0 0 0 0
27-10-2020 16.5 (12:50) 9.3 (00:00) 12.9 19.44 (11:30) 8.33 (11:30) 1.2 0 0.6 0 0.6
26-10-2020 -- (--) -- (--) -- -- (--) -- (--) -- -- -- -- 0
25-10-2020 -- (--) -- (--) -- -- (--) -- (--) -- -- -- -- --
24-10-2020 17.4 (14:00) 12.5 (00:00) 14.9 24.44 (13:00) 9.44 (12:50) 0.2 0 0 0 0.2
23-10-2020 15.8 (15:40) 10.1 (00:00) 13 16.67 (23:50) 6.39 (22:50) 1.4 0 1.4 0 0
22-10-2020 17.7 (17:10) 11.1 (00:00) 14.4 9.44 (17:30) 4.72 (18:40) 0 0 0 0 0
21-10-2020 17.8 (17:30) 12.2 (00:00) 15 13.89 (05:00) 6.94 (05:00) 6.2 3.6 2.4 0.2 0
20-10-2020 18.9 (15:30) 12.3 (00:00) 15.6 11.94 (01:10) 8.89 (01:10) 8.8 0 0 1 7.8
19-10-2020 23.9 (14:40) 15.4 (00:00) 19.6 16.39 (15:00) 9.72 (15:20) 0.2 0 0 0 0.2
18-10-2020 21.2 (14:50) 10.7 (00:00) 16 7.78 (22:10) 6.11 (20:10) 0 0 0 0 0
17-10-2020 17.4 (18:20) 8.8 (00:00) 13.1 5 (11:00) 3.06 (08:50) 0 0 0 0 0
16-10-2020 15.2 (16:30) 5.9 (00:00) 10.5 6.94 (19:30) 4.72 (19:20) 0 0 0 0 0
15-10-2020 13.4 (15:40) 8.7 (00:00) 11 7.78 (17:20) 5 (18:30) 5.2 1.6 1.6 2 0
14-10-2020 12.8 (16:50) 8.8 (00:00) 10.8 9.44 (04:50) 5.83 (03:20) 26 11 8.8 2.2 4
13-10-2020 14 (00:00) 9.3 (00:00) 11.7 10.56 (04:20) 7.5 (04:30) 15 8 3.8 1.4 1.8
12-10-2020 15.2 (13:40) 8.6 (00:00) 11.9 3.89 (21:30) 2.5 (22:40) 5.2 0 0 3.6 1.6
11-10-2020 13.9 (15:10) 9.7 (00:00) 11.8 8.33 (00:20) 6.39 (00:20) 0.4 0.2 0.2 0 0
10-10-2020 14.6 (15:40) 10.3 (00:00) 12.5 9.72 (03:00) 6.39 (23:40) 3.6 1 0.4 0.4 1.8
09-10-2020 19.1 (13:00) 12.7 (00:00) 15.9 8.06 (17:10) 5.28 (16:10) 0 0 0 0 0
08-10-2020 18.4 (14:50) 13.7 (00:00) 16 4.72 (15:50) 3.33 (17:30) 0 0 0 0 0
07-10-2020 18 (15:30) 14.8 (00:00) 16.4 10 (00:30) 4.44 (16:10) 0.4 0 0.4 0 0
06-10-2020 20.9 (16:40) 16.6 (00:00) 18.8 13.33 (23:20) 5.28 (22:50) 0 0 0 0 0
05-10-2020 17.7 (14:10) 9.4 (00:00) 13.6 14.17 (22:00) 6.11 (19:40) 0.8 0.8 0 0 0
04-10-2020 13.5 (17:50) 9.9 (00:00) 11.7 19.72 (13:50) 9.44 (13:10) 6.4 1 3.4 1.6 0.4
03-10-2020 14.6 (15:30) 7.8 (00:00) 11.2 12.78 (03:10) 5.28 (03:10) 12 8 4 0 0
02-10-2020 14.4 (00:00) 5.8 (00:00) 10.1 25 (05:10) 14.17 (04:40) 71.2 26.4 19.6 13.8 11.4
01-10-2020 16.7 (15:50) 10.4 (00:00) 13.6 22.5 (22:40) 8.61 (18:40) 4.6 2.2 1.8 0 0.6
30-09-2020 20.3 (14:40) 11.4 (00:00) 15.8 15.56 (22:30) 6.67 (22:30) 0 0 0 0 0

Gráficas

Temp. máximas Temp. mínimas Temp. medias Precipitaciones Rachas de viento máximas Velocidades máximas media en intervalos de 10 minutos

Datos horarios

Fecha y hora oficial Temperatura (ºC) Velocidad del viento (km/h) Dirección del viento Racha (km/h) Dirección de racha Precipitación (mm) Presión (hPa) Tendencia (hPa) Humedad (%)
2020-10-29 23:00:00 12.1 2 Este 8 Este 0 -- -- 82
2020-10-29 22:00:00 12.4 4 Este 5 Nordeste 0 -- -- 81
2020-10-29 21:00:00 12.4 2 Este 5 Este 0 -- -- 83
2020-10-29 20:00:00 12.5 0 Calma 3 Sudeste 0 -- -- 83
2020-10-29 19:00:00 12.9 0 Calma 9 Este 0 -- -- 82
2020-10-29 18:00:00 13.5 5 Este 13 Este 0 -- -- 78
2020-10-29 17:00:00 15.9 2 Noroeste 8 Noroeste 0 -- -- 70
2020-10-29 16:00:00 15.4 7 Noroeste 12 Noroeste 0 -- -- 73
2020-10-29 15:00:00 15.2 6 Noroeste 14 Noroeste 0 -- -- 73
2020-10-29 14:00:00 15.4 7 Oeste 13 Oeste 0 -- -- 70
2020-10-29 13:00:00 16 3 Oeste 12 Sudeste 0 -- -- 67
2020-10-29 12:00:00 14.5 8 Sur 12 Sudeste 0 -- -- 70
2020-10-29 11:00:00 13.5 4 Sudeste 10 Sudeste 0 -- -- 74
2020-10-29 10:00:00 12 4 Este 8 Este 0 -- -- 77
2020-10-29 09:00:00 9.7 6 Este 11 Este 0 -- -- 83
2020-10-29 08:00:00 9.8 4 Oeste 11 Sudoeste 0 -- -- 82
2020-10-29 07:00:00 10 7 Sudoeste 17 Sur 0 -- -- 81
2020-10-29 06:00:00 10 2 Sudeste 12 Oeste 0 -- -- 81
2020-10-29 05:00:00 10.7 6 Oeste 26 Sur 0 -- -- 78
2020-10-29 04:00:00 9.9 6 Sudeste 16 Sudoeste 0 -- -- 85
2020-10-29 03:00:00 10.8 4 Oeste 13 Sudoeste 0 -- -- 84
2020-10-29 02:00:00 11.1 6 Oeste 15 Oeste 0 -- -- 84
2020-10-29 01:00:00 11.4 3 Norte 18 Oeste 0 -- -- 83
2020-10-29 00:00:00 11.3 7 Noroeste 17 Sur 0 -- -- 84
2020-10-28 23:00:00 11.6 6 Noroeste 15 Oeste 0 -- -- 81
2020-10-28 22:00:00 11.8 4 Oeste 13 Sudoeste 0 -- -- 79
2020-10-28 21:00:00 12.3 4 Oeste 14 Sudoeste 0 -- -- 78
2020-10-28 20:00:00 12.6 8 Noroeste 21 Sur 0 -- -- 77
2020-10-28 19:00:00 12.8 3 Noroeste 26 Oeste 0 -- -- 76
2020-10-28 18:00:00 13.4 11 Noroeste 24 Noroeste 0 -- -- 73
2020-10-28 17:00:00 15.3 10 Noroeste 22 Sudoeste 0 -- -- 66
2020-10-28 16:00:00 15 10 Noroeste 28 Sudoeste 0 -- -- 67
2020-10-28 15:00:00 15.5 10 Oeste 36 Sudoeste 0 -- -- 65
2020-10-28 14:00:00 15 9 Noroeste 37 Oeste 0 -- -- 68
2020-10-28 13:00:00 13.3 13 Oeste 32 Sudoeste 0 -- -- 79
2020-10-28 12:00:00 12.8 9 Noroeste 25 Noroeste 0 -- -- 74
2020-10-28 11:00:00 13.9 8 Sudoeste 27 Oeste 0 -- -- 68
2020-10-28 10:00:00 12.4 6 Oeste 19 Sudoeste 0 -- -- 72
2020-10-28 09:00:00 11.5 6 Oeste 20 Oeste 0 -- -- 74
2020-10-28 08:00:00 11.2 9 Oeste 26 Sudoeste 0 -- -- 77
2020-10-28 07:00:00 10.8 8 Noroeste 23 Oeste 0 -- -- 83
2020-10-28 06:00:00 11.4 8 Noroeste 20 Sudoeste 0 -- -- 83
2020-10-28 05:00:00 11.3 9 Oeste 21 Oeste 0 -- -- 84
2020-10-28 04:00:00 11.3 8 Noroeste 30 Sudoeste 0 -- -- 82
2020-10-28 03:00:00 11.6 7 Noroeste 25 Oeste 0 -- -- 81
2020-10-28 02:00:00 11.7 8 Sudoeste 22 Sudoeste 0 -- -- 85
2020-10-28 01:00:00 12 5 Oeste 13 Oeste 0 -- -- 93
2020-10-28 00:00:00 12.3 5 Oeste 24 Sudoeste 0 -- -- 93
2020-10-27 23:00:00 12.4 8 Oeste 23 Oeste 0.2 -- -- 95
2020-10-27 22:00:00 12.2 6 Sudoeste 18 Sur 0.4 -- -- 100
2020-10-27 21:00:00 12.9 10 Noroeste 22 Noroeste 0 -- -- 96
2020-10-27 20:00:00 13.4 9 Noroeste 22 Oeste 0 -- -- 91
2020-10-27 19:00:00 14 10 Noroeste 27 Oeste 0 -- -- 86
2020-10-27 18:00:00 14.9 13 Noroeste 53 Sudoeste 0 -- -- 78
2020-10-27 17:00:00 15.2 22 Sudoeste 51 Sudoeste 0 -- -- 76
2020-10-27 16:00:00 15.1 21 Sudoeste 60 Sur 0 -- -- 76
2020-10-27 15:00:00 15.1 22 Sudoeste 55 Sudoeste 0 -- -- 75
2020-10-27 14:00:00 14.7 24 Sudoeste 62 Sudoeste 0 -- -- 74
2020-10-27 13:00:00 16.2 22 Sudoeste 67 Sur 0 -- -- 71
2020-10-27 12:00:00 14.8 27 Sudoeste 70 Sudoeste 0 -- -- 74
2020-10-27 11:00:00 13.7 23 Sudoeste 62 Sudoeste 0 -- -- 77
2020-10-27 10:00:00 11.7 22 Sudoeste 59 Sur 0.4 -- -- 84
2020-10-27 09:00:00 10.8 19 Sudoeste 60 Sudoeste 0.2 -- -- 87
2020-10-27 08:00:00 11.7 22 Sudoeste 59 Sudoeste 0 -- -- 76
2020-10-27 07:00:00 11.3 26 Sudoeste 65 Sudoeste 0 -- -- 77
2020-10-27 06:00:00 10.8 19 Sudoeste 60 Sudoeste 0 -- -- 80
2020-10-27 05:00:00 10.7 20 Sudoeste 59 Sudoeste 0 -- -- 80
2020-10-27 04:00:00 10.6 22 Sudoeste 50 Sur 0 -- -- 78
2020-10-27 03:00:00 10 13 Oeste 44 Oeste 0 -- -- 81
2020-10-27 02:00:00 10.2 15 Oeste 39 Sudoeste 0 -- -- 79
2020-10-27 01:00:00 9.7 10 Oeste 36 Sudoeste 0 -- -- 83
2020-10-27 00:00:00 9.3 10 Oeste 37 Sudoeste 0 -- -- 85
2020-10-26 23:00:00 9.6 10 Oeste 39 Oeste 0 -- -- 81
2020-10-26 22:00:00 9.4 10 Oeste 35 Sudoeste 0 -- -- 83
2020-10-26 21:00:00 9.1 6 Noroeste 40 Sudoeste 0 -- -- 81
2020-10-26 20:00:00 9.3 8 Noroeste 32 Sur 0 -- -- 80
2020-10-26 19:00:00 9.3 6 Noroeste 23 Oeste 0 -- -- 82
2020-10-26 18:00:00 10 12 Oeste 31 Sudoeste 0 -- -- 79
2020-10-26 17:00:00 9.9 8 Oeste 28 Sudoeste 0.2 -- -- 85
2020-10-26 16:00:00 11.2 8 Noroeste 28 Oeste 0 -- -- 76
2020-10-26 15:00:00 11.1 15 Oeste 36 Oeste 0 -- -- 73
2020-10-26 14:00:00 12.6 8 Noroeste -- -- -- -- -- 70
2020-10-26 13:00:00 -- -- -- -- -- -- -- -- --
2020-10-26 12:00:00 -- -- -- -- -- -- -- -- --
2020-10-26 11:00:00 -- -- -- -- -- -- -- -- --
2020-10-26 10:00:00 -- -- -- -- -- -- -- -- --
2020-10-26 09:00:00 -- -- -- -- -- -- -- -- --
2020-10-26 08:00:00 -- -- -- -- -- -- -- -- --
2020-10-26 07:00:00 -- -- -- -- -- -- -- -- --
2020-10-26 06:00:00 -- -- -- -- -- -- -- -- --
2020-10-26 05:00:00 -- -- -- -- -- -- -- -- --
2020-10-26 04:00:00 -- -- -- -- -- -- -- -- --
2020-10-26 03:00:00 -- -- -- -- -- -- -- -- --
2020-10-26 02:00:00 -- -- -- -- -- -- -- -- --
2020-10-26 01:00:00 -- -- -- -- -- -- -- -- --
2020-10-26 00:00:00 -- -- -- -- -- -- -- -- --
2020-10-25 23:00:00 -- -- -- -- -- -- -- -- --
2020-10-25 22:00:00 -- -- -- -- -- -- -- -- --
2020-10-25 21:00:00 -- -- -- -- -- -- -- -- --
2020-10-25 20:00:00 -- -- -- -- -- -- -- -- --
2020-10-25 19:00:00 -- -- -- -- -- -- -- -- --
2020-10-25 18:00:00 -- -- -- -- -- -- -- -- --
2020-10-25 17:00:00 -- -- -- -- -- -- -- -- --
2020-10-25 16:00:00 -- -- -- -- -- -- -- -- --
2020-10-25 15:00:00 -- -- -- -- -- -- -- -- --
2020-10-25 14:00:00 -- -- -- -- -- -- -- -- --
2020-10-25 13:00:00 -- -- -- -- -- -- -- -- --
2020-10-25 12:00:00 -- -- -- -- -- -- -- -- --
2020-10-25 11:00:00 -- -- -- -- -- -- -- -- --
2020-10-25 10:00:00 -- -- -- -- -- -- -- -- --
2020-10-25 09:00:00 -- -- -- -- -- -- -- -- --
2020-10-25 08:00:00 -- -- -- -- -- -- -- -- --
2020-10-25 07:00:00 -- -- -- -- -- -- -- -- --
2020-10-25 06:00:00 -- -- -- -- -- -- -- -- --
2020-10-25 05:00:00 -- -- -- -- -- -- -- -- --
2020-10-25 04:00:00 -- -- -- -- -- -- -- -- --
2020-10-25 03:00:00 -- -- -- -- -- -- -- -- --
2020-10-25 02:00:00 14.6 26 Sudoeste 66 Sudoeste 1.2 -- -- 84
2020-10-25 01:00:00 14.4 22 Sudoeste 81 Sur 0.6 -- -- 85
2020-10-25 00:00:00 14.9 26 Sudoeste 66 Sudoeste 0.2 -- -- 84
2020-10-24 23:00:00 15.9 23 Sudoeste 67 Sudoeste 0 -- -- 75
2020-10-24 22:00:00 16.7 30 Sudoeste 72 Sudoeste 0 -- -- 70
2020-10-24 21:00:00 16.7 21 Sudoeste 77 Sudoeste 0 -- -- 65
2020-10-24 20:00:00 16.3 29 Sudoeste 72 Sur 0 -- -- 64
2020-10-24 19:00:00 16.3 28 Sudoeste 72 Sudoeste 0 -- -- 67
2020-10-24 18:00:00 16.8 27 Sudoeste 71 Sudoeste 0 -- -- 67
2020-10-24 17:00:00 17.4 28 Sudoeste 79 Sur 0 -- -- 67
2020-10-24 16:00:00 16.8 27 Sudoeste 75 Sur 0 -- -- 67
2020-10-24 15:00:00 16.3 29 Sur 62 Sur 0 -- -- 67
2020-10-24 14:00:00 17.4 16 Sudoeste 65 Sur 0 -- -- 68
2020-10-24 13:00:00 16.6 34 Sudoeste 88 Sudoeste 0 -- -- 67
2020-10-24 12:00:00 16.2 24 Sudoeste 66 Sur 0 -- -- 68
2020-10-24 11:00:00 15 27 Sudoeste 67 Sudoeste 0 -- -- 71
2020-10-24 10:00:00 14.4 22 Sudoeste 55 Sudoeste 0 -- -- 73
2020-10-24 09:00:00 13.4 19 Sudoeste 53 Sudoeste 0 -- -- 76
2020-10-24 08:00:00 13.6 21 Oeste 59 Sur 0 -- -- 75
2020-10-24 07:00:00 13.6 29 Sudoeste 64 Sur 0 -- -- 74
2020-10-24 06:00:00 13.2 26 Sudoeste 64 Sudoeste 0 -- -- 75
2020-10-24 05:00:00 13.1 25 Sudoeste 63 Sur 0 -- -- 73
2020-10-24 04:00:00 13 18 Sudoeste 53 Sur 0 -- -- 72
2020-10-24 03:00:00 12.7 19 Sudoeste 49 Sudoeste 0 -- -- 73
2020-10-24 02:00:00 12.6 20 Sudoeste 53 Sur 0 -- -- 73
2020-10-24 01:00:00 12.5 20 Sudoeste 55 Sur 0 -- -- 72
2020-10-24 00:00:00 12.6 22 Sudoeste 60 Sur 0 -- -- 72
2020-10-23 23:00:00 12.6 21 Sudoeste 54 Sudoeste 0 -- -- 72
2020-10-23 22:00:00 12.6 17 Sudoeste 45 Sur 0 -- -- 75
2020-10-23 21:00:00 12.7 12 Sudoeste 30 Oeste 0 -- -- 73
2020-10-23 20:00:00 12.9 12 Sudoeste 30 Sur 0 -- -- 73
2020-10-23 19:00:00 13.5 7 Noroeste 33 Sudoeste 0 -- -- 70
2020-10-23 18:00:00 14.9 10 Noroeste 31 Sur 0 -- -- 66
2020-10-23 17:00:00 15 8 Noroeste 35 Sudoeste 0 -- -- 67
2020-10-23 16:00:00 15.6 11 Oeste 41 Sudoeste 0 -- -- 64
2020-10-23 15:00:00 14.7 12 Sudoeste 33 Sudoeste 0 -- -- 70
2020-10-23 14:00:00 14.9 9 Sudoeste 23 Sudoeste 0 -- -- 79
2020-10-23 13:00:00 12.7 5 Noroeste 12 Oeste 0 -- -- 90
2020-10-23 12:00:00 11.6 3 Noroeste 15 Sur 0 -- -- 96
2020-10-23 11:00:00 10.7 4 Norte 14 Oeste 0.2 -- -- 98
2020-10-23 10:00:00 10.1 2 Norte 26 Sur 1 -- -- 98
2020-10-23 09:00:00 10.7 9 Noroeste 33 Sudoeste 0.2 -- -- 92
2020-10-23 08:00:00 11.4 15 Sudoeste 46 Sudoeste 0 -- -- 83
2020-10-23 07:00:00 11.5 15 Sudoeste 42 Sudoeste 0 -- -- 80
2020-10-23 06:00:00 11.6 16 Sudoeste 33 Sudoeste 0 -- -- 80
2020-10-23 05:00:00 11.6 9 Oeste 42 Sur 0 -- -- 81
2020-10-23 04:00:00 11.5 8 Oeste 26 Sudoeste 0 -- -- 80
2020-10-23 03:00:00 11.5 5 Noroeste 24 Sur 0 -- -- 81
2020-10-23 02:00:00 11.8 8 Sudoeste 31 Sudoeste 0 -- -- 79
2020-10-23 01:00:00 11.8 10 Sudoeste 23 Sudoeste 0 -- -- 80
2020-10-23 00:00:00 11.7 4 Sudoeste 12 Sudoeste 0 -- -- 79
2020-10-22 23:00:00 12.1 6 Oeste 14 Oeste 0 -- -- 76
2020-10-22 22:00:00 12.8 3 Sudeste 13 Noroeste 0 -- -- 72
2020-10-22 21:00:00 12.5 0 Calma 11 Sur 0 -- -- 73
2020-10-22 20:00:00 13.3 4 Sudeste 12 Oeste 0 -- -- 73
2020-10-22 19:00:00 14.1 6 Oeste 32 Noroeste 0 -- -- 78
2020-10-22 18:00:00 17.4 8 Sudoeste 34 Sudoeste 0 -- -- 60
2020-10-22 17:00:00 17.3 9 Sudoeste 33 Sudoeste 0 -- -- 63
2020-10-22 16:00:00 16.8 6 Sudoeste 24 Sur 0 -- -- 65
2020-10-22 15:00:00 16.2 5 Oeste 19 Noroeste 0 -- -- 70
2020-10-22 14:00:00 16 5 Noroeste 16 Sudoeste 0 -- -- 71
2020-10-22 13:00:00 15.9 6 Sudeste 10 Sudeste 0 -- -- 66
2020-10-22 12:00:00 15.1 2 Sudeste 10 Sur 0 -- -- 69
2020-10-22 11:00:00 14.8 3 Sudeste 8 Este 0 -- -- 73
2020-10-22 10:00:00 11.8 5 Este 9 Este 0 -- -- 76
2020-10-22 09:00:00 11.8 3 Sudeste 8 Este 0 -- -- 73
2020-10-22 08:00:00 11.8 6 Este 9 Este 0 -- -- 75
2020-10-22 07:00:00 12.5 6 Este 12 Sudeste 0 -- -- 71
2020-10-22 06:00:00 11.2 5 Sudeste 12 Sudoeste 0 -- -- 77
2020-10-22 05:00:00 11.6 0 Calma 9 Oeste 0 -- -- 76
2020-10-22 04:00:00 12.4 3 Sudoeste 8 Sur 0 -- -- 72
2020-10-22 03:00:00 12.6 4 Sudeste 12 Sudeste 0 -- -- 73
2020-10-22 02:00:00 12.4 5 Sudeste 10 Sudeste 0 -- -- 73
2020-10-22 01:00:00 12.8 5 Sudeste 12 Sudeste 0 -- -- 72
2020-10-22 00:00:00 13.4 3 Sudeste 8 Sudeste 0 -- -- 70
2020-10-21 23:00:00 13.9 3 Este 7 Este 0 -- -- 66
2020-10-21 22:00:00 14.2 3 Este 11 Sudoeste 0 -- -- 66
2020-10-21 21:00:00 14.7 9 Sur 26 Sur 0 -- -- 66
2020-10-21 20:00:00 15.1 4 Este 16 Sudoeste 0 -- -- 71
2020-10-21 19:00:00 15.7 9 Sudoeste 21 Sur 0 -- -- 68
2020-10-21 18:00:00 16.5 6 Oeste 46 Sur 0 -- -- 65
2020-10-21 17:00:00 17.4 18 Sur 38 Sur 0 -- -- 63
2020-10-21 16:00:00 15.5 24 Sur 40 Sur 0 -- -- 73
2020-10-21 15:00:00 14.9 21 Sur 41 Sur 0.2 -- -- 74
2020-10-21 14:00:00 16.3 15 Sudoeste 35 Sur 0 -- -- 66
2020-10-21 13:00:00 16 11 Sudoeste 31 Sudoeste 0 -- -- 73
2020-10-21 12:00:00 15.8 10 Sudoeste 30 Sudoeste 0 -- -- 77
2020-10-21 11:00:00 13.5 11 Sudoeste 26 Sur 0.2 -- -- 87
2020-10-21 10:00:00 12.2 3 Norte 35 Sudoeste 0.4 -- -- 95
2020-10-21 09:00:00 12.2 3 Oeste 28 Sudoeste 1.4 -- -- 97
2020-10-21 08:00:00 12.8 8 Noroeste 41 Sudoeste 0.4 -- -- 92
2020-10-21 07:00:00 13.6 10 Oeste 36 Sudoeste 0 -- -- 83
2020-10-21 06:00:00 13.4 14 Sudoeste 40 Sudoeste 0 -- -- 84
2020-10-21 05:00:00 13.5 25 Sudoeste 50 Sur 0.2 -- -- 82
2020-10-21 04:00:00 12.9 9 Sudoeste 32 Sudoeste 0 -- -- 92
2020-10-21 03:00:00 12.7 8 Sudoeste 35 Sudoeste 0.2 -- -- 94
2020-10-21 02:00:00 12.4 17 Sur 29 Sur 2.2 -- -- 100
2020-10-21 01:00:00 12.3 0 Calma 9 Oeste 1 -- -- 100
2020-10-21 00:00:00 12.3 4 Oeste 8 Sudoeste 1 -- -- 100
2020-10-20 23:00:00 12.4 5 Noroeste 10 Noroeste 0.4 -- -- 100
2020-10-20 22:00:00 12.6 7 Sudeste 13 Sudeste 0.6 -- -- 99
2020-10-20 21:00:00 12.6 0 Calma 6 Sudeste 1.6 -- -- 98
2020-10-20 20:00:00 13.1 4 Sudeste 11 Este 1.8 -- -- 96
2020-10-20 19:00:00 13.6 6 Este 8 Este 2.4 -- -- 93
2020-10-20 18:00:00 15 2 Sudeste 6 Sudeste 1 -- -- 85
2020-10-20 17:00:00 15.8 5 Sudeste 7 Sudeste 0 -- -- 88
2020-10-20 16:00:00 16.9 4 Noroeste 12 Noroeste 0 -- -- 83
2020-10-20 15:00:00 17.7 8 Nordeste 12 Este 0 -- -- 70
2020-10-20 14:00:00 16.5 6 Noroeste 14 Este 0 -- -- 82
2020-10-20 13:00:00 16.9 3 Este 6 Oeste 0 -- -- 75
2020-10-20 12:00:00 16.5 6 Nordeste 8 Nordeste 0 -- -- 70
2020-10-20 11:00:00 16.5 2 Sur 8 Este 0 -- -- 67
2020-10-20 10:00:00 16.4 3 Nordeste 11 Oeste 0 -- -- 65
2020-10-20 09:00:00 15.7 8 Sur 15 Sudeste 0 -- -- 67
2020-10-20 08:00:00 16.3 4 Sudeste 10 Este 0 -- -- 66
2020-10-20 07:00:00 16.5 0 Calma 12 Sudeste 0 -- -- 66
2020-10-20 06:00:00 16.1 7 Sur 21 Sur 0 -- -- 69
2020-10-20 05:00:00 16.7 13 Sur 31 Sur 0 -- -- 68
2020-10-20 04:00:00 16.7 8 Sudoeste 32 Sudeste 0 -- -- 69
2020-10-20 03:00:00 16.5 15 Sur 33 Sudoeste 0 -- -- 70
2020-10-20 02:00:00 17.3 19 Sur 43 Sudeste 0 -- -- 68
2020-10-20 01:00:00 16.9 21 Sudeste 35 Sur 0 -- -- 70
2020-10-20 00:00:00 17.1 10 Sur 40 Sudeste 0 -- -- 69
2020-10-19 23:00:00 17.6 7 Sudoeste 49 Sur 0 -- -- 66
2020-10-19 22:00:00 17.9 10 Sudeste 40 Sudoeste 0 -- -- 67
2020-10-19 21:00:00 18.2 22 Sur 54 Sur 0 -- -- 67
2020-10-19 20:00:00 18.2 19 Sur 46 Sudeste 0 -- -- 66
2020-10-19 19:00:00 17.6 6 Este 16 Sudoeste 0.2 -- -- 65
2020-10-19 18:00:00 19.8 5 Sudoeste 17 Sudoeste 0 -- -- 54
2020-10-19 17:00:00 20.7 12 Sur 52 Sur 0 -- -- 45
2020-10-19 16:00:00 21.9 22 Sur 58 Sur 0 -- -- 38
2020-10-19 15:00:00 23.1 26 Sur 59 Sur 0 -- -- 33
2020-10-19 14:00:00 21.7 6 Este 14 Sur 0 -- -- 48
2020-10-19 13:00:00 19.8 6 Sudeste 10 Nordeste 0 -- -- 55
2020-10-19 12:00:00 16.6 8 Nordeste 17 Noroeste 0 -- -- 57
2020-10-19 11:00:00 16.2 11 Noroeste 17 Noroeste 0 -- -- 61
2020-10-19 10:00:00 16.4 3 Sur 11 Sudoeste 0 -- -- 53
2020-10-19 09:00:00 16 3 Sur 12 Sudoeste 0 -- -- 54
2020-10-19 08:00:00 16.6 3 Sur 10 Sudeste 0 -- -- 53
2020-10-19 07:00:00 15.4 5 Sur 10 Sur 0 -- -- 61
2020-10-19 06:00:00 15.9 4 Sudeste 6 Sur 0 -- -- 57
2020-10-19 05:00:00 16.2 5 Noroeste 15 Sur 0 -- -- 58
2020-10-19 04:00:00 18.4 4 Noroeste 18 Este 0 -- -- 47
2020-10-19 03:00:00 18.5 4 Sur 9 Oeste 0 -- -- 47
2020-10-19 02:00:00 17.6 3 Norte 13 Sudoeste 0 -- -- 51
2020-10-19 01:00:00 17.8 5 Oeste 12 Sudoeste 0 -- -- 54
2020-10-19 00:00:00 18.4 4 Sudeste 14 Sur 0 -- -- 52
2020-10-18 23:00:00 17.4 3 Noroeste 28 Sudeste 0 -- -- 63
2020-10-18 22:00:00 17.1 10 Sudeste 22 Sudeste 0 -- -- 67
2020-10-18 21:00:00 17.4 5 Este 27 Este 0 -- -- 63
2020-10-18 20:00:00 17 20 Este 26 Este 0 -- -- 69
2020-10-18 19:00:00 17.2 5 Este 6 Este 0 -- -- 77
2020-10-18 18:00:00 18.6 0 Calma 8 Noroeste 0 -- -- 77
2020-10-18 17:00:00 19.9 9 Este 16 Este 0 -- -- 57
2020-10-18 16:00:00 18.9 5 Noroeste 14 Oeste 0 -- -- 75
2020-10-18 15:00:00 20.9 0 Calma 6 Sur 0 -- -- 56
2020-10-18 14:00:00 20.3 2 Noroeste 10 Sur 0 -- -- 61
2020-10-18 13:00:00 18.7 6 Sur 11 Sur 0 -- -- 67
2020-10-18 12:00:00 17.2 3 Sur 10 Sudeste 0 -- -- 69
2020-10-18 11:00:00 14 8 Sur 14 Sur 0 -- -- 77
2020-10-18 10:00:00 12.7 2 Noroeste 6 Este 0 -- -- 80
2020-10-18 09:00:00 11.6 4 Sudeste 11 Sur 0 -- -- 83
2020-10-18 08:00:00 10.7 9 Sur 12 Sur 0 -- -- 89
2020-10-18 07:00:00 11.2 2 Noroeste 12 Sur 0 -- -- 88
2020-10-18 06:00:00 12.1 3 Sur 8 Este 0 -- -- 83
2020-10-18 05:00:00 11.5 0 Calma 4 Noroeste 0 -- -- 88
2020-10-18 04:00:00 11.7 2 Este 8 Sur 0 -- -- 87
2020-10-18 03:00:00 11.8 4 Sudeste 13 Sudoeste 0 -- -- 87
2020-10-18 02:00:00 12.8 3 Noroeste 12 Sudoeste 0 -- -- 81
2020-10-18 01:00:00 13.2 0 Calma 6 Sudeste 0 -- -- 79
2020-10-18 00:00:00 13.7 3 Este 8 Sudeste 0 -- -- 77
2020-10-17 23:00:00 14.1 3 Este 6 Nordeste 0 -- -- 73
2020-10-17 22:00:00 14.1 5 Sudeste 8 Este 0 -- -- 74
2020-10-17 21:00:00 14.1 4 Este 6 Este 0 -- -- 78
2020-10-17 20:00:00 13.7 3 Sudoeste 12 Oeste 0 -- -- 86
2020-10-17 19:00:00 15.7 0 Calma 7 Noroeste 0 -- -- 79
2020-10-17 18:00:00 16.8 3 Este 9 Noroeste 0 -- -- 73
2020-10-17 17:00:00 16.5 4 Oeste 11 Oeste 0 -- -- 75
2020-10-17 16:00:00 14.9 5 Noroeste 8 Noroeste 0 -- -- 81
2020-10-17 15:00:00 14.3 5 Noroeste 12 Oeste 0 -- -- 71
2020-10-17 14:00:00 14.5 5 Sudeste 13 Sudoeste 0 -- -- 72
2020-10-17 13:00:00 14.5 4 Sudeste 10 Sudoeste 0 -- -- 66
2020-10-17 12:00:00 13.9 6 Sudeste 18 Sudoeste 0 -- -- 66
2020-10-17 11:00:00 11.9 6 Este 18 Este 0 -- -- 66
2020-10-17 10:00:00 10.5 6 Este 16 Sur 0 -- -- 73
2020-10-17 09:00:00 9.1 10 Sudoeste 17 Sudoeste 0 -- -- 83
2020-10-17 08:00:00 9.2 5 Sudeste 8 Este 0 -- -- 82
2020-10-17 07:00:00 9.2 3 Sur 10 Sudoeste 0 -- -- 83
2020-10-17 06:00:00 9.4 5 Sudeste 9 Sudeste 0 -- -- 83
2020-10-17 05:00:00 9.1 6 Sudeste 13 Sudeste 0 -- -- 86
2020-10-17 04:00:00 9.6 7 Sur 13 Sudoeste 0 -- -- 85
2020-10-17 03:00:00 11.2 3 Sudeste 12 Sudeste 0 -- -- 77
2020-10-17 02:00:00 10.2 3 Sur 8 Sudeste 0 -- -- 84
2020-10-17 01:00:00 10.6 4 Sudoeste 8 Sudoeste 0 -- -- 81
2020-10-17 00:00:00 10.7 0 Calma 4 Este 0 -- -- 83
2020-10-16 23:00:00 11.2 0 Calma 7 Nordeste 0 -- -- 81
2020-10-16 22:00:00 11.7 6 Este 15 Sudeste 0 -- -- 79
2020-10-16 21:00:00 11.3 5 Este 17 Este 0 -- -- 82
2020-10-16 20:00:00 11.5 10 Este 25 Este 0 -- -- 79
2020-10-16 19:00:00 12.5 9 Este 15 Este 0 -- -- 75
2020-10-16 18:00:00 14.5 5 Noroeste 15 Noroeste 0 -- -- 71
2020-10-16 17:00:00 14.8 8 Oeste 15 Oeste 0 -- -- 73
2020-10-16 16:00:00 14.6 7 Noroeste 12 Oeste 0 -- -- 62
2020-10-16 15:00:00 13.9 4 Noroeste 11 Oeste 0 -- -- 67
2020-10-16 14:00:00 13.2 2 Noroeste 13 Sur 0 -- -- 70
2020-10-16 13:00:00 11.5 6 Sur 14 Sur 0 -- -- 75
2020-10-16 12:00:00 9.7 7 Sudoeste 16 Sur 0 -- -- 85
2020-10-16 11:00:00 7.8 8 Sudoeste 17 Sudoeste 0 -- -- 91
2020-10-16 10:00:00 6.8 5 Sudoeste 13 Sudoeste 0 -- -- 89
2020-10-16 09:00:00 6.4 3 Sur 8 Sudoeste 0 -- -- 86
2020-10-16 08:00:00 6.9 3 Sur 13 Sur 0 -- -- 83
2020-10-16 07:00:00 7.2 7 Sudoeste 13 Sudeste 0 -- -- 82
2020-10-16 06:00:00 8 4 Sur 12 Este 0 -- -- 79
2020-10-16 05:00:00 8 10 Este 16 Este 0 -- -- 82
2020-10-16 04:00:00 8.4 5 Sudeste 12 Sudeste 0 -- -- 82
2020-10-16 03:00:00 8.1 11 Este 14 Este 0 -- -- 85
2020-10-16 02:00:00 8.6 12 Este 15 Este 0 -- -- 81
2020-10-16 01:00:00 8.8 5 Sur 6 Sur 0 -- -- 81
2020-10-16 00:00:00 9.2 0 Calma 12 Este 0 -- -- 77
2020-10-15 23:00:00 8.8 6 Sudeste 15 Este 0 -- -- 81
2020-10-15 22:00:00 8.9 12 Este 20 Este 0 -- -- 85
2020-10-15 21:00:00 9.6 10 Este 22 Este 0 -- -- 85
2020-10-15 20:00:00 10.3 9 Este 21 Nordeste 0 -- -- 81
2020-10-15 19:00:00 10.7 14 Nordeste 26 Nordeste 0 -- -- 79
2020-10-15 18:00:00 12.2 15 Nordeste 28 Nordeste 0 -- -- 76
2020-10-15 17:00:00 12.1 13 Nordeste 25 Nordeste 0 -- -- 77
2020-10-15 16:00:00 13 12 Nordeste 25 Este 0 -- -- 73
2020-10-15 15:00:00 12.6 13 Nordeste 27 Este 0 -- -- 72
2020-10-15 14:00:00 11.6 15 Nordeste 26 Norte 0 -- -- 86
2020-10-15 13:00:00 10.7 2 Norte 8 Noroeste 2 -- -- 100
2020-10-15 12:00:00 11.1 3 Noroeste 9 Sudeste 0.4 -- -- 97
2020-10-15 11:00:00 10.2 0 Calma 7 Sur 1 -- -- 99
2020-10-15 10:00:00 10.2 3 Este 8 Sudoeste 0 -- -- 98
2020-10-15 09:00:00 9.2 3 Sur 12 Noroeste 0 -- -- 100
2020-10-15 08:00:00 9.2 4 Sudoeste 9 Sudoeste 0.2 -- -- 100
2020-10-15 07:00:00 9.2 5 Sudoeste 11 Sudoeste 0 -- -- 100
2020-10-15 06:00:00 8.9 7 Sur 12 Sur 0 -- -- 100
2020-10-15 05:00:00 9.2 5 Sur 8 Oeste 0 -- -- 100
2020-10-15 04:00:00 9.4 2 Sudeste 7 Sudeste 0 -- -- 100
2020-10-15 03:00:00 9.6 0 Calma 9 Sudeste 0.4 -- -- 100
2020-10-15 02:00:00 9.3 4 Sur 9 Sudoeste 0.8 -- -- 100
2020-10-15 01:00:00 9.3 3 Sur 9 Sur 0.4 -- -- 100
2020-10-15 00:00:00 9.2 3 Sur 13 Noroeste 1.6 -- -- 100
2020-10-14 23:00:00 9.6 3 Este 5 Sur 0 -- -- 100
2020-10-14 22:00:00 9.4 2 Sudeste 8 Sudoeste 1.2 -- -- 100
2020-10-14 21:00:00 9.8 2 Sur 6 Noroeste 0.2 -- -- 100
2020-10-14 20:00:00 10 5 Oeste 11 Noroeste 0 -- -- 100
2020-10-14 19:00:00 10.4 3 Sur 14 Oeste 1 -- -- 97
2020-10-14 18:00:00 11.1 12 Noroeste 33 Noroeste 0 -- -- 91
2020-10-14 17:00:00 12.5 11 Oeste 25 Noroeste 0 -- -- 81
2020-10-14 16:00:00 12 17 Noroeste 32 Noroeste 0 -- -- 80
2020-10-14 15:00:00 12.2 9 Oeste 31 Noroeste 1 -- -- 90
2020-10-14 14:00:00 11.4 7 Noroeste 24 Oeste 1.2 -- -- 98
2020-10-14 13:00:00 11 10 Noroeste 19 Noroeste 0 -- -- 100
2020-10-14 12:00:00 10.6 4 Oeste 9 Noroeste 0 -- -- 100
2020-10-14 11:00:00 9.8 6 Oeste 14 Oeste 1.2 -- -- 100
2020-10-14 10:00:00 9.3 4 Oeste 13 Noroeste 3.6 -- -- 100
2020-10-14 09:00:00 8.8 3 Sudoeste 14 Oeste 1 -- -- 100
2020-10-14 08:00:00 8.8 3 Sudoeste 14 Noroeste 1.8 -- -- 100
2020-10-14 07:00:00 9 4 Sudoeste 14 Sur 1.2 -- -- 100
2020-10-14 06:00:00 9 3 Sudoeste 23 Oeste 0.2 -- -- 100
2020-10-14 05:00:00 9.1 20 Oeste 34 Noroeste 3.6 -- -- 100
2020-10-14 04:00:00 9.2 4 Sudoeste 30 Noroeste 2 -- -- 100
2020-10-14 03:00:00 9.2 11 Oeste 33 Noroeste 2.6 -- -- 100
2020-10-14 02:00:00 9.1 4 Sur 10 Sudoeste 2.2 -- -- 100
2020-10-14 01:00:00 9.3 8 Noroeste 14 Noroeste 0.4 -- -- 100
2020-10-14 00:00:00 9.3 5 Sudoeste 9 Sudoeste 0.6 -- -- 100
2020-10-13 23:00:00 9.5 3 Sudoeste 12 Sudoeste 0.8 -- -- 100
2020-10-13 22:00:00 9.4 4 Sudoeste 18 Noroeste 0.2 -- -- 100
2020-10-13 21:00:00 9.6 2 Oeste 12 Oeste 0.2 -- -- 100
2020-10-13 20:00:00 9.6 7 Oeste 14 Noroeste 0 -- -- 100
2020-10-13 19:00:00 10.1 2 Sudoeste 20 Noroeste 0 -- -- 100
2020-10-13 18:00:00 10 17 Noroeste 29 Noroeste 0.2 -- -- 100
2020-10-13 17:00:00 10.6 23 Noroeste 38 Noroeste 0 -- -- 100
2020-10-13 16:00:00 10.2 10 Noroeste 35 Noroeste 0.6 -- -- 100
2020-10-13 15:00:00 10.9 6 Noroeste 27 Noroeste 0 -- -- 100
2020-10-13 14:00:00 10.6 12 Noroeste 26 Noroeste 0.6 -- -- 100
2020-10-13 13:00:00 11.7 8 Noroeste 17 Noroeste 0 -- -- 100
2020-10-13 12:00:00 11.2 8 Noroeste 18 Oeste 0 -- -- 100
2020-10-13 11:00:00 -- -- -- -- -- -- -- -- --
2020-10-13 10:00:00 -- -- -- -- -- -- -- -- --
2020-10-13 09:00:00 11 9 Noroeste 21 Noroeste 1.4 -- -- 100
2020-10-13 08:00:00 11.3 8 Noroeste 25 Noroeste 0.8 -- -- 100
2020-10-13 07:00:00 11.7 12 Noroeste 27 Noroeste 0.6 -- -- 100
2020-10-13 06:00:00 11.8 12 Noroeste 36 Noroeste 0.4 -- -- 100
2020-10-13 05:00:00 12.8 21 Noroeste 38 Noroeste 1 -- -- 100
2020-10-13 04:00:00 13.6 19 Noroeste 28 Noroeste 3.2 -- -- 100
2020-10-13 03:00:00 13.9 17 Noroeste 25 Noroeste 1 -- -- 100
2020-10-13 02:00:00 13.9 5 Oeste 9 Oeste 1.6 -- -- 100
2020-10-13 01:00:00 -- -- -- -- -- -- -- -- --
2020-10-13 00:00:00 14 3 Oeste 12 Sudoeste 0.2 -- -- 100
2020-10-12 23:00:00 14.1 5 Sudoeste 13 Sudoeste 0 -- -- 100
2020-10-12 22:00:00 13.8 3 Noroeste 14 Sudoeste 0 -- -- 100
2020-10-12 21:00:00 13.8 4 Oeste 11 Sudoeste 0 -- -- 100
2020-10-12 20:00:00 13.8 4 Oeste 14 Sur 0.8 -- -- 100
2020-10-12 19:00:00 13.7 4 Sudoeste 11 Sur 0.6 -- -- 100
2020-10-12 18:00:00 -- -- -- -- -- -- -- -- --
2020-10-12 17:00:00 13.6 2 Noroeste 11 Sudoeste 1.8 -- -- 100
2020-10-12 16:00:00 13.5 4 Sudoeste 9 Sudoeste 0.8 -- -- 100
2020-10-12 15:00:00 13.6 4 Sur 12 Sudoeste 0.2 -- -- 96
2020-10-12 14:00:00 14.3 5 Noroeste 7 Sudoeste 0 -- -- 85
2020-10-12 13:00:00 14.7 5 Sudoeste 9 Sudoeste 0 -- -- 77
2020-10-12 12:00:00 13 6 Sudeste 9 Sur 0 -- -- 77
2020-10-12 11:00:00 11.2 2 Sudeste 7 Sudeste 0 -- -- 86
2020-10-12 10:00:00 9.6 3 Nordeste 5 Este 0 -- -- 90
2020-10-12 09:00:00 8.9 0 Calma 5 Sudoeste 0 -- -- 89
2020-10-12 08:00:00 8.9 0 Calma 8 Este 0 -- -- 90
2020-10-12 07:00:00 8.9 4 Sudeste 6 Sudeste 0 -- -- 90
2020-10-12 06:00:00 9.3 0 Calma 4 Este 0 -- -- 91
2020-10-12 05:00:00 9.5 0 Calma 4 Sudeste 0 -- -- 90
2020-10-12 04:00:00 -- -- -- -- -- -- -- -- --
2020-10-12 03:00:00 10.2 2 Sur 6 Nordeste 0 -- -- 89
2020-10-12 02:00:00 10.5 6 Nordeste 10 Norte 0 -- -- 88
2020-10-12 01:00:00 10.4 0 Calma 6 Nordeste 0 -- -- 87
2020-10-12 00:00:00 10.7 4 Nordeste 12 Nordeste 0 -- -- 85
2020-10-11 23:00:00 10.9 3 Norte 18 Norte 0 -- -- 88
2020-10-11 22:00:00 10.8 8 Noroeste 17 Noroeste 0 -- -- 88
2020-10-11 21:00:00 -- -- -- -- -- -- -- -- --
2020-10-11 20:00:00 -- -- -- -- -- -- -- -- --
2020-10-11 19:00:00 11.2 7 Noroeste 18 Noroeste 0 -- -- 83
2020-10-11 18:00:00 11.6 14 Noroeste 23 Noroeste 0 -- -- 81
2020-10-11 17:00:00 12.3 13 Noroeste 26 Noroeste 0 -- -- 74
2020-10-11 16:00:00 12.8 17 Noroeste 30 Noroeste 0 -- -- 72
2020-10-11 15:00:00 13.5 10 Noroeste 22 Noroeste 0 -- -- 70
2020-10-11 14:00:00 12.6 13 Noroeste 26 Noroeste 0 -- -- 74
2020-10-11 13:00:00 12.4 9 Norte 23 Nordeste 0 -- -- 72
2020-10-11 12:00:00 12.1 9 Nordeste 18 Nordeste 0 -- -- 75
2020-10-11 11:00:00 11.7 3 Nordeste 13 Norte 0 -- -- 80
2020-10-11 10:00:00 10.7 9 Nordeste 16 Nordeste 0 -- -- 79
2020-10-11 09:00:00 10.2 7 Norte 18 Norte 0 -- -- 89
2020-10-11 08:00:00 9.9 9 Nordeste 18 Nordeste 0.2 -- -- 92
2020-10-11 07:00:00 9.9 8 Norte 24 Este 0 -- -- 92
2020-10-11 06:00:00 9.9 17 Este 23 Este 0 -- -- 91
2020-10-11 05:00:00 9.7 15 Este 24 Este 0 -- -- 94
2020-10-11 04:00:00 9.9 12 Este 23 Este 0.2 -- -- 93
2020-10-11 03:00:00 10.1 18 Este 24 Este 0 -- -- 94
2020-10-11 02:00:00 10.9 12 Este 25 Este 0 -- -- 85
2020-10-11 01:00:00 10.7 20 Este 30 Nordeste 0 -- -- 90
2020-10-11 00:00:00 11.3 22 Nordeste 33 Nordeste 0 -- -- 87
2020-10-10 23:00:00 11.4 21 Nordeste 32 Nordeste 0 -- -- 90
2020-10-10 22:00:00 11.5 20 Nordeste 31 Nordeste 0 -- -- 92
2020-10-10 21:00:00 11.3 14 Nordeste 28 Nordeste 1.2 -- -- 96
2020-10-10 20:00:00 11.8 17 Norte 31 Norte 0.2 -- -- 94
2020-10-10 19:00:00 12.1 10 Norte 25 Nordeste 0.4 -- -- 93
2020-10-10 18:00:00 13.4 10 Norte 23 Nordeste 0 -- -- 86
2020-10-10 17:00:00 14.1 12 Norte 23 Nordeste 0 -- -- 82
2020-10-10 16:00:00 14.1 13 Nordeste 28 Este 0 -- -- 79
2020-10-10 15:00:00 13.4 10 Nordeste 23 Nordeste 0 -- -- 82
2020-10-10 14:00:00 13.2 12 Nordeste 23 Este 0 -- -- 85
2020-10-10 13:00:00 13.1 10 Nordeste 22 Este 0.4 -- -- 94
2020-10-10 12:00:00 12.4 10 Nordeste 20 Nordeste 0 -- -- 91
2020-10-10 11:00:00 11.9 8 Nordeste 26 Este 0 -- -- 95
2020-10-10 10:00:00 10.6 6 Este 24 Nordeste 0 -- -- 99
2020-10-10 09:00:00 10.3 8 Este 33 Nordeste 0 -- -- 100
2020-10-10 08:00:00 10.8 18 Norte 32 Nordeste 0.4 -- -- 100
2020-10-10 07:00:00 11.2 9 Nordeste 23 Nordeste 0 -- -- 100
2020-10-10 06:00:00 11.4 11 Nordeste 24 Nordeste 0.2 -- -- 100
2020-10-10 05:00:00 11.8 7 Norte 20 Norte 0.4 -- -- 100
2020-10-10 04:00:00 12.1 9 Nordeste 27 Norte 0.4 -- -- 99
2020-10-10 03:00:00 13 15 Nordeste 35 Nordeste 0 -- -- 98
2020-10-10 02:00:00 13.4 4 Sur 14 Noroeste 0 -- -- 91
2020-10-10 01:00:00 13.3 9 Este 12 Este 0 -- -- 86
2020-10-10 00:00:00 13.7 0 Calma 5 Sur 0 -- -- 96
2020-10-09 23:00:00 14.3 0 Calma 10 Este 0 -- -- 84
2020-10-09 22:00:00 14.2 5 Nordeste 8 Nordeste 0 -- -- 86
2020-10-09 21:00:00 14.8 2 Nordeste 9 Norte 0 -- -- 82
2020-10-09 20:00:00 14.9 5 Nordeste 15 Noroeste 0 -- -- 86
2020-10-09 19:00:00 15.4 11 Noroeste 21 Noroeste 0 -- -- 86
2020-10-09 18:00:00 16.4 12 Noroeste 29 Noroeste 0 -- -- 78
2020-10-09 17:00:00 16.6 17 Noroeste 27 Noroeste 0 -- -- 78
2020-10-09 16:00:00 18.2 16 Noroeste 21 Noroeste 0 -- -- 80
2020-10-09 15:00:00 18.6 9 Noroeste 14 Noroeste 0 -- -- 78
2020-10-09 14:00:00 18.2 5 Oeste 13 Oeste 0 -- -- 74
2020-10-09 13:00:00 19.1 3 Noroeste 10 Sur 0 -- -- 73
2020-10-09 12:00:00 17.3 5 Sur 14 Sur 0 -- -- 81
2020-10-09 11:00:00 15.1 5 Sudeste 10 Sur 0 -- -- 91
2020-10-09 10:00:00 14.1 3 Sur 10 Sur 0 -- -- 97
2020-10-09 09:00:00 12.9 2 Sudeste 8 Este 0 -- -- 99
2020-10-09 08:00:00 12.8 3 Sudeste 6 Sudeste 0 -- -- 99
2020-10-09 07:00:00 13.1 3 Sudeste 8 Sudeste 0 -- -- 99
2020-10-09 06:00:00 13.6 5 Sudeste 6 Sudeste 0 -- -- 100
2020-10-09 05:00:00 13.8 2 Sudoeste 8 Sur 0 -- -- 99
2020-10-09 04:00:00 14 7 Sudeste 11 Sudeste 0 -- -- 100
2020-10-09 03:00:00 13.8 0 Calma -- -- 0 -- -- 100
2020-10-09 02:00:00 13.8 0 Calma 3 Oeste 0 -- -- 100
2020-10-09 01:00:00 13.6 4 Noroeste 9 Nordeste 0 -- -- 100
2020-10-09 00:00:00 13.8 4 Este 8 Este 0 -- -- 100
2020-10-08 23:00:00 13.9 2 Sudeste 6 Sudeste 0 -- -- 100
2020-10-08 22:00:00 14.2 4 Sur 6 Este 0 -- -- 100
2020-10-08 21:00:00 14.3 0 Calma 4 Sur 0 -- -- 100
2020-10-08 20:00:00 14.3 0 Calma 13 Noroeste 0 -- -- 100
2020-10-08 19:00:00 14.4 8 Noroeste 17 Noroeste 0 -- -- 99
2020-10-08 18:00:00 15.3 10 Noroeste 16 Noroeste 0 -- -- 98
2020-10-08 17:00:00 16.6 10 Noroeste 15 Oeste 0 -- -- 95
2020-10-08 16:00:00 17 10 Noroeste 17 Noroeste 0 -- -- 93
2020-10-08 15:00:00 18.3 9 Noroeste 14 Noroeste 0 -- -- 87
2020-10-08 14:00:00 17.4 5 Noroeste 12 Noroeste 0 -- -- 86
2020-10-08 13:00:00 16.7 4 Sur 9 Sur 0 -- -- 89
2020-10-08 12:00:00 15 3 Sudeste 8 Sudeste 0 -- -- 93
2020-10-08 11:00:00 14.4 2 Oeste 6 Sur 0 -- -- 95
2020-10-08 10:00:00 14 5 Este 9 Sudeste 0 -- -- 95
2020-10-08 09:00:00 13.8 3 Sudeste 8 Sudeste 0 -- -- 95
2020-10-08 08:00:00 13.8 8 Sudeste 13 Sudeste 0 -- -- 94
2020-10-08 07:00:00 14.2 2 Este 5 Sudeste 0 -- -- 94
2020-10-08 06:00:00 14.3 3 Sudeste 5 Sudeste 0 -- -- 94
2020-10-08 05:00:00 14.2 2 Sudeste 6 Sur 0 -- -- 93
2020-10-08 04:00:00 14.2 3 Sudoeste 5 Sudoeste 0 -- -- 93
2020-10-08 03:00:00 14.4 3 Sudeste 14 Este 0 -- -- 92
2020-10-08 02:00:00 14.4 6 Este 10 Este 0 -- -- 91
2020-10-08 01:00:00 14.9 3 Este 15 Sudeste 0 -- -- 87
2020-10-08 00:00:00 14.8 6 Sudeste 8 Sudeste 0 -- -- 87
2020-10-07 23:00:00 15 5 Nordeste 8 Este 0 -- -- 87
2020-10-07 22:00:00 15 2 Nordeste 10 Nordeste 0 -- -- 87
2020-10-07 21:00:00 15.2 5 Nordeste 8 Este 0 -- -- 86
2020-10-07 20:00:00 15.2 3 Nordeste 12 Noroeste 0 -- -- 86
2020-10-07 19:00:00 15.2 8 Noroeste 17 Noroeste 0 -- -- 92
2020-10-07 18:00:00 15.5 7 Noroeste 21 Noroeste 0 -- -- 95
2020-10-07 17:00:00 16.4 15 Noroeste 24 Noroeste 0 -- -- 90
2020-10-07 16:00:00 17.8 11 Noroeste 19 Noroeste 0 -- -- 87
2020-10-07 15:00:00 17.6 13 Noroeste 23 Noroeste 0 -- -- 90
2020-10-07 14:00:00 16.6 9 Noroeste 16 Noroeste 0 -- -- 91
2020-10-07 13:00:00 15.8 9 Noroeste 19 Noroeste 0 -- -- 97
2020-10-07 12:00:00 16.1 5 Noroeste 12 Oeste 0 -- -- 98
2020-10-07 11:00:00 15.4 4 Noroeste 8 Noroeste 0 -- -- 100
2020-10-07 10:00:00 15.2 4 Noroeste 13 Noroeste 0.2 -- -- 100
2020-10-07 09:00:00 15.3 5 Noroeste 22 Noroeste 0.2 -- -- 99
2020-10-07 08:00:00 16.2 4 Sudoeste 10 Sudoeste 0 -- -- 91
2020-10-07 07:00:00 16.1 3 Noroeste 20 Sudoeste 0 -- -- 91
2020-10-07 06:00:00 16.1 5 Noroeste 15 Sudoeste 0 -- -- 91
2020-10-07 05:00:00 16.2 4 Norte 19 Sudoeste 0 -- -- 89
2020-10-07 04:00:00 16.2 6 Oeste 21 Sudoeste 0 -- -- 89
2020-10-07 03:00:00 16.2 5 Noroeste 21 Sudoeste 0 -- -- 89
2020-10-07 02:00:00 16.3 6 Noroeste 33 Oeste 0 -- -- 87
2020-10-07 01:00:00 16.5 12 Oeste 36 Sudoeste 0 -- -- 84
2020-10-07 00:00:00 16.6 17 Sudoeste 48 Sur 0 -- -- 82
2020-10-06 23:00:00 16.8 13 Sudoeste 40 Sudoeste 0 -- -- 80
2020-10-06 22:00:00 17.4 10 Noroeste 40 Sudoeste 0 -- -- 77
2020-10-06 21:00:00 17.7 13 Oeste 44 Sudoeste 0 -- -- 72
2020-10-06 20:00:00 18 14 Sudoeste 40 Oeste 0 -- -- 72
2020-10-06 19:00:00 18.8 14 Noroeste 31 Noroeste 0 -- -- 70
2020-10-06 18:00:00 19.3 10 Noroeste 34 Sudoeste 0 -- -- 77
2020-10-06 17:00:00 20.6 13 Oeste 31 Oeste 0 -- -- 71
2020-10-06 16:00:00 20.2 10 Noroeste 30 Oeste 0 -- -- 75
2020-10-06 15:00:00 20.4 12 Noroeste 29 Oeste 0 -- -- 74
2020-10-06 14:00:00 19.5 12 Noroeste 33 Oeste 0 -- -- 79
2020-10-06 13:00:00 19.9 9 Noroeste 36 Sudoeste 0 -- -- 77
2020-10-06 12:00:00 18.5 10 Oeste 26 Sudoeste 0 -- -- 82
2020-10-06 11:00:00 18.6 10 Noroeste 38 Sur 0 -- -- 84
2020-10-06 10:00:00 17.5 11 Noroeste 34 Sudoeste 0 -- -- 86
2020-10-06 09:00:00 17.2 11 Oeste 41 Sudoeste 0 -- -- 87
2020-10-06 08:00:00 16.9 9 Sudoeste 26 Sudoeste 0 -- -- 89
2020-10-06 07:00:00 16.9 13 Noroeste 46 Sudoeste 0 -- -- 88
2020-10-06 06:00:00 17 15 Sudoeste 42 Sudoeste 0 -- -- 87
2020-10-06 05:00:00 16.8 17 Sudoeste 46 Sudoeste 0 -- -- 88
2020-10-06 04:00:00 16.9 14 Sudoeste 46 Sudoeste 0 -- -- 87
2020-10-06 03:00:00 17 14 Oeste 35 Oeste 0 -- -- 86
2020-10-06 02:00:00 16.8 13 Oeste 39 Sudoeste 0 -- -- 87
2020-10-06 01:00:00 16.8 12 Oeste 42 Sudoeste 0 -- -- 86
2020-10-06 00:00:00 16.7 13 Oeste 41 Oeste 0 -- -- 87
2020-10-05 23:00:00 16.6 14 Sudoeste 50 Sudoeste 0 -- -- 87
2020-10-05 22:00:00 16.5 18 Oeste 51 Sur 0 -- -- 86
2020-10-05 21:00:00 16.2 18 Sudoeste 42 Sudoeste 0 -- -- 85
2020-10-05 20:00:00 15.9 18 Oeste 49 Sudoeste 0 -- -- 84
2020-10-05 19:00:00 15.1 15 Sudoeste 37 Sudoeste 0 -- -- 86
2020-10-05 18:00:00 15.6 15 Sudoeste 47 Sudoeste 0 -- -- 82
2020-10-05 17:00:00 15.9 15 Sudoeste 36 Sur 0 -- -- 78
2020-10-05 16:00:00 17 13 Oeste 32 Oeste 0 -- -- 73
2020-10-05 15:00:00 17.2 12 Oeste 31 Sudoeste 0 -- -- 68
2020-10-05 14:00:00 17.6 11 Oeste 31 Oeste 0 -- -- 70
2020-10-05 13:00:00 15.3 7 Oeste 26 Sudoeste 0 -- -- 74
2020-10-05 12:00:00 14 8 Noroeste 28 Sudoeste 0 -- -- 75
2020-10-05 11:00:00 13.4 10 Oeste 30 Sudoeste 0 -- -- 76
2020-10-05 10:00:00 11.5 5 Noroeste 15 Sur 0 -- -- 86
2020-10-05 09:00:00 10.8 7 Noroeste 19 Sur 0 -- -- 86
2020-10-05 08:00:00 10.8 5 Noroeste 22 Sudoeste 0 -- -- 86
2020-10-05 07:00:00 10.7 7 Noroeste 30 Sudoeste 0 -- -- 87
2020-10-05 06:00:00 10.3 7 Oeste 24 Sudoeste 0.2 -- -- 92
2020-10-05 05:00:00 9.6 4 Noroeste 21 Sur 0.6 -- -- 97
2020-10-05 04:00:00 10.6 10 Noroeste 22 Oeste 0 -- -- 88
2020-10-05 03:00:00 10.3 9 Oeste 28 Oeste 0 -- -- 91
2020-10-05 02:00:00 10.6 11 Oeste 26 Sudoeste 0 -- -- 89
2020-10-05 01:00:00 10.5 7 Oeste 28 Oeste 0 -- -- 87
2020-10-05 00:00:00 10.3 6 Noroeste 25 Oeste 0.2 -- -- 89
2020-10-04 23:00:00 10.4 11 Oeste 27 Sudoeste 0 -- -- 90
2020-10-04 22:00:00 10.5 12 Oeste 26 Oeste 0 -- -- 88
2020-10-04 21:00:00 10.1 7 Sudoeste 32 Oeste 0 -- -- 93
2020-10-04 20:00:00 11.2 11 Oeste 25 Sudoeste 0.2 -- -- 83
2020-10-04 19:00:00 12.8 10 Noroeste 28 Oeste 0 -- -- 77
2020-10-04 18:00:00 13.3 11 Oeste 31 Oeste 0 -- -- 77
2020-10-04 17:00:00 12.5 15 Noroeste 36 Noroeste 0 -- -- 82
2020-10-04 16:00:00 10.8 10 Oeste 55 Noroeste 0.2 -- -- 95
2020-10-04 15:00:00 12.3 26 Noroeste 48 Noroeste 0 -- -- 81
2020-10-04 14:00:00 10.4 30 Noroeste 71 Noroeste 0.8 -- -- 89
2020-10-04 13:00:00 11.3 22 Noroeste 52 Oeste 0.6 -- -- 87
2020-10-04 12:00:00 11.1 15 Oeste 51 Noroeste 0.2 -- -- 88
2020-10-04 11:00:00 9.9 22 Noroeste 55 Oeste 1.8 -- -- 95
2020-10-04 10:00:00 10.2 13 Noroeste 37 Noroeste 1.2 -- -- 93
2020-10-04 09:00:00 11.8 20 Noroeste 50 Sur 0 -- -- 79
2020-10-04 08:00:00 11.6 15 Oeste 51 Noroeste 0.2 -- -- 78
2020-10-04 07:00:00 11.7 13 Oeste 43 Oeste 0 -- -- 79
2020-10-04 06:00:00 11.6 15 Oeste 36 Oeste 0 -- -- 83
2020-10-04 05:00:00 11 17 Noroeste 47 Noroeste 0.8 -- -- 95
2020-10-04 04:00:00 11.5 12 Noroeste 48 Sudoeste 0.2 -- -- 93
2020-10-04 03:00:00 11.8 13 Noroeste 50 Sudoeste 0 -- -- 86
2020-10-04 02:00:00 11.9 18 Sudoeste 49 Sur 0 -- -- 83
2020-10-04 01:00:00 11.6 21 Sudoeste 46 Sur 0 -- -- 83
2020-10-04 00:00:00 11.8 17 Sudoeste 42 Sudoeste 0 -- -- 82
2020-10-03 23:00:00 11.4 6 Oeste 24 Sudoeste 0 -- -- 82
2020-10-03 22:00:00 12 12 Noroeste 33 Oeste 0 -- -- 78
2020-10-03 21:00:00 11.9 14 Noroeste 36 Sudoeste 0 -- -- 82
2020-10-03 20:00:00 12.3 13 Oeste 27 Oeste 0 -- -- 78
2020-10-03 19:00:00 12.5 13 Noroeste 29 Oeste 0 -- -- 75
2020-10-03 18:00:00 13 9 Noroeste 32 Sudoeste 0 -- -- 74
2020-10-03 17:00:00 13.1 12 Oeste 28 Sur 0 -- -- 72
2020-10-03 16:00:00 13.6 12 Noroeste 33 Oeste 0 -- -- 71
2020-10-03 15:00:00 13.2 11 Noroeste 28 Noroeste 0 -- -- 76
2020-10-03 14:00:00 12.1 13 Oeste 28 Noroeste 0 -- -- 81
2020-10-03 13:00:00 10.8 10 Noroeste 24 Oeste 0 -- -- 88
2020-10-03 12:00:00 10.2 6 Oeste 31 Sudoeste 0 -- -- 92
2020-10-03 11:00:00 9.7 6 Oeste 27 Oeste 0.2 -- -- 92
2020-10-03 10:00:00 9.1 9 Oeste 27 Noroeste 0.6 -- -- 97
2020-10-03 09:00:00 8.5 7 Oeste 23 Sudoeste 2 -- -- 98
2020-10-03 08:00:00 9 13 Oeste 31 Sur 0.6 -- -- 93
2020-10-03 07:00:00 8.7 7 Oeste 23 Sudoeste 0.6 -- -- 95
2020-10-03 06:00:00 8.7 10 Oeste 28 Sudoeste 0.6 -- -- 94
2020-10-03 05:00:00 8.7 9 Oeste 32 Noroeste 3 -- -- 93
2020-10-03 04:00:00 8.5 6 Oeste 46 Oeste 1.2 -- -- 95
2020-10-03 03:00:00 9.4 14 Oeste 45 Noroeste 1.6 -- -- 93
2020-10-03 02:00:00 9.3 18 Noroeste 39 Noroeste 1 -- -- 97
2020-10-03 01:00:00 8.4 9 Oeste 24 Sur 0.6 -- -- 100
2020-10-03 00:00:00 7.9 6 Noroeste 54 Noroeste 6.2 -- -- 99
2020-10-02 23:00:00 9.8 11 Oeste 33 Noroeste 0.4 -- -- 87
2020-10-02 22:00:00 9.7 22 Noroeste 43 Noroeste 0.6 -- -- 87
2020-10-02 21:00:00 9.3 18 Noroeste 46 Noroeste 2.2 -- -- 98
2020-10-02 20:00:00 9.4 10 Oeste 31 Noroeste 1.2 -- -- 95
2020-10-02 19:00:00 9.9 15 Oeste 39 Noroeste 0.8 -- -- 88
2020-10-02 18:00:00 11.3 18 Noroeste 44 Oeste 0.6 -- -- 79
2020-10-02 17:00:00 9.9 10 Oeste 45 Oeste 0.2 -- -- 90
2020-10-02 16:00:00 8.3 21 Noroeste 50 Oeste 1.4 -- -- 95
2020-10-02 15:00:00 9.2 6 Oeste 17 Sudoeste 0.2 -- -- 92
2020-10-02 14:00:00 6.6 10 Noroeste 27 Noroeste 3.8 -- -- 100
2020-10-02 13:00:00 5.9 9 Noroeste 36 Noroeste 7.6 -- -- 100
2020-10-02 12:00:00 6.7 18 Noroeste 50 Noroeste 1.8 -- -- 97
2020-10-02 11:00:00 7 11 Sudoeste 62 Oeste 1 -- -- 100
2020-10-02 10:00:00 7.3 15 Oeste 42 Noroeste 0.8 -- -- 100
2020-10-02 09:00:00 6.4 26 Noroeste 63 Noroeste 6.2 -- -- 100
2020-10-02 08:00:00 7.3 19 Noroeste 77 Oeste 6.6 -- -- 100
2020-10-02 07:00:00 8.5 32 Noroeste 65 Noroeste 3.2 -- -- 100
2020-10-02 06:00:00 8.8 38 Noroeste 90 Noroeste 3.4 -- -- 100
2020-10-02 05:00:00 10.2 40 Noroeste 82 Noroeste 4.8 -- -- 100
2020-10-02 04:00:00 11.3 45 Noroeste 80 Oeste 1.4 -- -- 100
2020-10-02 03:00:00 11.7 45 Noroeste 77 Noroeste 8 -- -- 100
2020-10-02 02:00:00 13.2 46 Noroeste 77 Noroeste 5 -- -- 99
2020-10-02 01:00:00 13.8 16 Noroeste 43 Oeste 3.8 -- -- 97
2020-10-02 00:00:00 14.4 17 Noroeste 61 Sudoeste 0.6 -- -- 91
2020-10-01 23:00:00 14.8 21 Oeste 81 Oeste 0 -- -- 82
2020-10-01 22:00:00 14.1 21 Oeste 63 Sudoeste 0 -- -- 81
2020-10-01 21:00:00 13.8 23 Sudoeste 72 Sudoeste 0 -- -- 82
2020-10-01 20:00:00 14.8 21 Oeste 64 Sudoeste 0 -- -- 73
2020-10-01 19:00:00 15.2 21 Sudoeste 71 Sudoeste 0 -- -- 70
2020-10-01 18:00:00 15.7 14 Sudoeste 50 Sudoeste 0 -- -- 69
2020-10-01 17:00:00 16 11 Oeste 39 Sur 0 -- -- 66
2020-10-01 16:00:00 16.4 13 Oeste 36 Sudoeste 0 -- -- 66
2020-10-01 15:00:00 15.8 9 Oeste 40 Sur 0 -- -- 72
2020-10-01 14:00:00 15.3 10 Noroeste 33 Oeste 0 -- -- 88
2020-10-01 13:00:00 14.5 7 Sudoeste 18 Sur 0 -- -- 96
2020-10-01 12:00:00 13 6 Sudoeste 19 Sudoeste 0 -- -- 99
2020-10-01 11:00:00 11.5 5 Noroeste 17 Sur 0 -- -- 100
2020-10-01 10:00:00 11 8 Sur 18 Sur 0 -- -- 100
2020-10-01 09:00:00 10.5 8 Oeste 41 Noroeste 1.4 -- -- 100
2020-10-01 08:00:00 11.6 4 Noroeste 17 Noroeste 0.4 -- -- 100
2020-10-01 07:00:00 12 13 Noroeste 23 Noroeste 0 -- -- 100
2020-10-01 06:00:00 12 7 Noroeste 30 Noroeste 2 -- -- 100
2020-10-01 05:00:00 14.2 11 Noroeste 22 Oeste 0 -- -- 89
2020-10-01 04:00:00 14.2 5 Noroeste 24 Sudoeste 0 -- -- 89
2020-10-01 03:00:00 14.3 6 Noroeste 42 Sudoeste 0 -- -- 87
2020-10-01 02:00:00 14.3 18 Sudoeste 54 Oeste 0 -- -- 87
2020-10-01 01:00:00 14.7 18 Oeste 51 Sudoeste 0.2 -- -- 82
2020-10-01 00:00:00 15.3 19 Oeste 51 Sudoeste 0 -- -- 77
2020-09-30 23:00:00 15.6 18 Sudoeste 56 Sudoeste 0 -- -- 70
2020-09-30 22:00:00 15.4 8 Sudoeste 35 Sudoeste 0 -- -- 72
2020-09-30 21:00:00 16.4 15 Oeste 45 Sudoeste 0 -- -- 71
2020-09-30 20:00:00 16.3 3 Sudoeste 11 Oeste 0 -- -- 84
2020-09-30 19:00:00 16.6 3 Este 10 Noroeste 0 -- -- 87
2020-09-30 18:00:00 17.4 7 Noroeste 13 Oeste 0 -- -- 86
2020-09-30 17:00:00 17.7 7 Oeste 23 Noroeste 0 -- -- 81
2020-09-30 16:00:00 19 15 Noroeste 29 Norte 0 -- -- 75
2020-09-30 15:00:00 19.6 15 Noroeste 26 Noroeste 0 -- -- 73
2020-09-30 14:00:00 19.4 7 Noroeste 12 Sudoeste 0 -- -- 73
2020-09-30 13:00:00 17 6 Noroeste 10 Oeste 0 -- -- 81
2020-09-30 12:00:00 17.1 6 Sur 15 Sur 0 -- -- 81
2020-09-30 11:00:00 15 5 Sur 10 Sur 0 -- -- 86
2020-09-30 10:00:00 13.8 3 Sudeste 7 Sudeste 0 -- -- 92
2020-09-30 09:00:00 11.6 3 Sur 9 Sudoeste 0 -- -- 97
2020-09-30 08:00:00 11.7 5 Sudeste 8 Este 0 -- -- 99
2020-09-30 07:00:00 11.9 3 Sudeste 6 Sudeste 0 -- -- 98
2020-09-30 06:00:00 12.5 3 Oeste 4 Oeste 0 -- -- 96
2020-09-30 05:00:00 12.6 3 Noroeste 10 Este 0 -- -- 98
2020-09-30 04:00:00 12.2 4 Sudoeste 8 Sudeste 0 -- -- 99
2020-09-30 03:00:00 12.9 4 Sudeste 6 Este 0 -- -- 98
2020-09-30 02:00:00 13.2 0 Calma 4 Este 0 -- -- 97
2020-09-30 01:00:00 13.1 2 Sudeste 4 Sudeste 0 -- -- 98
2020-09-30 00:00:00 13.2 0 Calma 4 Noroeste 0 -- -- 97